Time,TemperatureF,DewpointF,PressureIn,WindDirection,WindDirectionDegrees,WindSpeedMPH,WindSpeedGustMPH,Humidity,HourlyPrecipIn,Conditions,Clouds,dailyrainin,SoftwareType,DateUTC
2013-07-08 00:01:00,72.1,70.9,30.13,WNW,300,1.0,3.0,96,0.01,,,0.08,meteohub,2013-07-08 04:01:00,
2013-07-08 00:02:00,72.1,70.9,30.13,WNW,300,1.0,3.0,96,0.01,,,0.08,meteohub,2013-07-08 04:02:00,
2013-07-08 00:04:00,72.1,70.9,30.13,WNW,297,0.0,3.0,96,0.01,,,0.08,meteohub,2013-07-08 04:04:00,
2013-07-08 00:09:00,72.1,70.9,30.14,WNW,299,0.0,3.0,96,0.01,,,0.00,meteohub,2013-07-08 04:09:00,
2013-07-08 00:14:00,72.1,70.9,30.13,WNW,299,0.0,2.0,96,0.01,,,0.00,meteohub,2013-07-08 04:14:00,
2013-07-08 00:19:00,72.1,70.9,30.13,WNW,299,0.0,2.0,96,0.01,,,0.00,meteohub,2013-07-08 04:19:00,
2013-07-08 00:24:00,72.0,70.7,30.13,WNW,299,0.0,2.0,96,0.00,,,0.00,meteohub,2013-07-08 04:24:00,
2013-07-08 00:30:00,72.0,70.7,30.12,WNW,299,0.0,1.0,96,0.00,,,0.00,meteohub,2013-07-08 04:30:00,
2013-07-08 00:35:00,72.0,70.7,30.13,WNW,299,0.0,2.0,96,0.00,,,0.00,meteohub,2013-07-08 04:35:00,
2013-07-08 00:40:00,72.0,70.7,30.13,WNW,299,0.0,2.0,96,0.00,,,0.00,meteohub,2013-07-08 04:40:00,
2013-07-08 00:45:00,72.0,70.7,30.13,WNW,299,0.0,2.0,96,0.00,,,0.00,meteohub,2013-07-08 04:45:00,
2013-07-08 00:51:00,72.0,71.1,30.13,WNW,299,0.0,0.0,97,0.00,,,0.00,meteohub,2013-07-08 04:51:00,
2013-07-08 00:56:00,72.0,71.1,30.13,WNW,299,0.0,0.0,97,0.00,,,0.00,meteohub,2013-07-08 04:56:00,
2013-07-08 01:01:00,72.0,71.1,30.13,WNW,299,0.0,0.0,97,0.00,,,0.00,meteohub,2013-07-08 05:01:00,
2013-07-08 01:06:00,71.8,70.9,30.13,WNW,299,0.0,0.0,97,0.00,,,0.00,meteohub,2013-07-08 05:06:00,
2013-07-08 01:11:00,71.8,70.9,30.13,WNW,299,0.0,0.0,97,0.00,,,0.00,meteohub,2013-07-08 05:11:00,
2013-07-08 01:17:00,71.8,70.9,30.13,WNW,299,0.0,0.0,97,0.00,,,0.00,meteohub,2013-07-08 05:17:00,
2013-07-08 01:22:00,71.8,70.9,30.12,WNW,299,0.0,0.0,97,0.00,,,0.00,meteohub,2013-07-08 05:22:00,
2013-07-08 01:27:00,71.8,70.9,30.12,WNW,299,0.0,0.0,97,0.00,,,0.00,meteohub,2013-07-08 05:27:00,
2013-07-08 01:32:00,71.8,70.9,30.12,WNW,299,0.0,0.0,97,0.00,,,0.00,meteohub,2013-07-08 05:32:00,
2013-07-08 01:37:00,71.8,70.9,30.12,WNW,299,0.0,0.0,97,0.00,,,0.00,meteohub,2013-07-08 05:37:00,
2013-07-08 01:42:00,71.8,70.9,30.12,WNW,299,0.0,0.0,97,0.00,,,0.00,meteohub,2013-07-08 05:42:00,
2013-07-08 01:47:00,71.8,71.2,30.12,WNW,299,0.0,0.0,98,0.00,,,0.00,meteohub,2013-07-08 05:47:00,
2013-07-08 01:52:00,71.8,71.2,30.12,WNW,299,0.0,0.0,98,0.00,,,0.00,meteohub,2013-07-08 05:52:00,
2013-07-08 01:57:00,71.8,70.9,30.12,WNW,299,0.0,0.0,97,0.00,,,0.00,meteohub,2013-07-08 05:57:00,
2013-07-08 02:02:00,71.8,71.2,30.13,WNW,299,0.0,0.0,98,0.00,,,0.00,meteohub,2013-07-08 06:02:00,
2013-07-08 02:07:00,71.8,71.2,30.12,WNW,299,0.0,2.0,98,0.00,,,0.00,meteohub,2013-07-08 06:07:00,
2013-07-08 02:12:00,71.8,71.2,30.12,WNW,299,0.0,2.0,98,0.00,,,0.00,meteohub,2013-07-08 06:12:00,
2013-07-08 02:17:00,71.8,71.2,30.12,WNW,299,0.0,2.0,98,0.00,,,0.00,meteohub,2013-07-08 06:17:00,
2013-07-08 02:22:00,71.8,71.2,30.12,WNW,299,0.0,0.0,98,0.00,,,0.00,meteohub,2013-07-08 06:22:00,
2013-07-08 02:27:00,71.8,71.2,30.12,WNW,299,0.0,0.0,98,0.00,,,0.00,meteohub,2013-07-08 06:27:00,
2013-07-08 02:32:00,71.8,71.2,30.12,WNW,299,0.0,0.0,98,0.00,,,0.00,meteohub,2013-07-08 06:32:00,
2013-07-08 02:37:00,71.8,71.2,30.12,WNW,299,0.0,1.0,98,0.00,,,0.00,meteohub,2013-07-08 06:37:00,
2013-07-08 02:42:00,71.8,71.2,30.13,WNW,299,0.0,1.0,98,0.00,,,0.00,meteohub,2013-07-08 06:42:00,
2013-07-08 02:47:00,72.0,71.4,30.13,NW,322,2.0,0.0,98,0.00,,,0.00,meteohub,2013-07-08 06:47:00,
2013-07-08 02:52:00,71.8,71.2,30.12,NW,322,0.0,3.0,98,0.03,,,0.03,meteohub,2013-07-08 06:52:00,
2013-07-08 02:57:00,71.8,71.2,30.12,NW,322,0.0,3.0,98,0.05,,,0.05,meteohub,2013-07-08 06:57:00,
2013-07-08 03:02:00,72.0,71.4,30.12,NW,322,0.0,3.0,98,0.06,,,0.06,meteohub,2013-07-08 07:02:00,
2013-07-08 03:07:00,72.0,71.4,30.12,NW,322,0.0,0.0,98,0.06,,,0.06,meteohub,2013-07-08 07:07:00,
2013-07-08 03:12:00,72.0,71.4,30.12,NW,322,0.0,1.0,98,0.06,,,0.06,meteohub,2013-07-08 07:12:00,
2013-07-08 03:17:00,72.0,71.4,30.12,NW,322,0.0,1.0,98,0.06,,,0.06,meteohub,2013-07-08 07:17:00,
2013-07-08 03:22:00,72.0,71.4,30.12,NW,322,0.0,0.0,98,0.06,,,0.06,meteohub,2013-07-08 07:22:00,
2013-07-08 03:27:00,72.0,71.4,30.12,NW,322,0.0,0.0,98,0.07,,,0.07,meteohub,2013-07-08 07:27:00,
2013-07-08 03:32:00,72.0,71.4,30.12,NW,322,0.0,0.0,98,0.08,,,0.08,meteohub,2013-07-08 07:32:00,
2013-07-08 03:37:00,72.0,71.4,30.12,NW,322,0.0,0.0,98,0.08,,,0.08,meteohub,2013-07-08 07:37:00,
2013-07-08 03:42:00,72.0,71.4,30.12,NW,322,0.0,0.0,98,0.08,,,0.08,meteohub,2013-07-08 07:42:00,
2013-07-08 03:47:00,72.0,71.4,30.13,NW,322,0.0,0.0,98,0.08,,,0.08,meteohub,2013-07-08 07:47:00,
2013-07-08 03:52:00,72.0,71.4,30.13,NW,322,0.0,0.0,98,0.03,,,0.08,meteohub,2013-07-08 07:52:00,
2013-07-08 03:57:00,72.0,71.4,30.13,NW,322,0.0,0.0,98,0.03,,,0.08,meteohub,2013-07-08 07:57:00,
2013-07-08 04:02:00,71.8,71.2,30.13,NW,322,0.0,0.0,98,0.02,,,0.08,meteohub,2013-07-08 08:02:00,
2013-07-08 04:07:00,71.8,71.2,30.13,NW,322,0.0,0.0,98,0.02,,,0.08,meteohub,2013-07-08 08:07:00,
2013-07-08 04:12:00,71.8,71.2,30.13,NW,322,0.0,0.0,98,0.04,,,0.10,meteohub,2013-07-08 08:12:00,
2013-07-08 04:17:00,71.8,71.2,30.13,NW,322,0.0,0.0,98,0.04,,,0.10,meteohub,2013-07-08 08:17:00,
2013-07-08 04:22:00,71.8,71.2,30.14,NW,321,0.0,0.0,98,0.04,,,0.10,meteohub,2013-07-08 08:22:00,
2013-07-08 04:27:00,71.8,71.2,30.13,NW,321,0.0,1.0,98,0.16,,,0.23,meteohub,2013-07-08 08:27:00,
2013-07-08 04:32:00,71.6,71.1,30.12,NW,321,0.0,1.0,98,0.17,,,0.24,meteohub,2013-07-08 08:32:00,
2013-07-08 04:37:00,71.6,71.1,30.12,NW,321,0.0,1.0,98,0.17,,,0.25,meteohub,2013-07-08 08:37:00,
2013-07-08 04:42:00,71.4,70.9,30.12,NW,321,0.0,0.0,98,0.17,,,0.25,meteohub,2013-07-08 08:42:00,
2013-07-08 04:47:00,71.4,70.9,30.12,NW,321,0.0,0.0,98,0.17,,,0.25,meteohub,2013-07-08 08:47:00,
2013-07-08 04:52:00,71.4,70.9,30.12,NW,321,0.0,0.0,98,0.18,,,0.26,meteohub,2013-07-08 08:52:00,
2013-07-08 04:57:00,71.4,70.9,30.12,NW,321,0.0,0.0,98,0.18,,,0.26,meteohub,2013-07-08 08:57:00,
2013-07-08 05:02:00,71.4,70.9,30.12,NW,321,0.0,0.0,98,0.18,,,0.26,meteohub,2013-07-08 09:02:00,
2013-07-08 05:07:00,71.2,70.7,30.12,NW,321,0.0,0.0,98,0.17,,,0.26,meteohub,2013-07-08 09:07:00,
2013-07-08 05:12:00,71.2,70.7,30.12,NW,321,0.0,0.0,98,0.16,,,0.26,meteohub,2013-07-08 09:12:00,
2013-07-08 05:17:00,71.2,70.7,30.12,NW,321,0.0,0.0,98,0.16,,,0.26,meteohub,2013-07-08 09:17:00,
2013-07-08 05:22:00,71.2,70.7,30.12,NW,321,0.0,0.0,98,0.11,,,0.26,meteohub,2013-07-08 09:22:00,
2013-07-08 05:27:00,71.2,70.7,30.12,NW,321,0.0,0.0,98,0.02,,,0.26,meteohub,2013-07-08 09:27:00,
2013-07-08 05:32:00,71.2,70.7,30.12,NW,321,0.0,0.0,98,0.01,,,0.26,meteohub,2013-07-08 09:32:00,
2013-07-08 05:37:00,71.2,70.7,30.12,NW,321,0.0,0.0,98,0.01,,,0.26,meteohub,2013-07-08 09:37:00,
2013-07-08 05:42:00,71.2,70.7,30.12,NW,321,0.0,0.0,98,0.01,,,0.26,meteohub,2013-07-08 09:42:00,
2013-07-08 05:47:00,71.2,70.9,30.12,NW,321,0.0,0.0,99,0.00,,,0.26,meteohub,2013-07-08 09:47:00,
2013-07-08 05:52:00,71.2,70.9,30.12,NW,321,0.0,0.0,99,0.00,,,0.26,meteohub,2013-07-08 09:52:00,
2013-07-08 05:57:00,71.2,70.9,30.12,NW,321,0.0,0.0,99,0.00,,,0.26,meteohub,2013-07-08 09:57:00,
2013-07-08 06:02:00,71.2,70.9,30.12,NW,321,0.0,0.0,99,0.00,,,0.26,meteohub,2013-07-08 10:02:00,
2013-07-08 06:07:00,71.2,70.9,30.13,NW,321,0.0,0.0,99,0.00,,,0.26,meteohub,2013-07-08 10:07:00,
2013-07-08 06:12:00,71.2,70.9,30.14,NW,321,0.0,0.0,99,0.00,,,0.26,meteohub,2013-07-08 10:12:00,
2013-07-08 06:17:00,71.2,70.9,30.14,NW,321,0.0,0.0,99,0.00,,,0.26,meteohub,2013-07-08 10:17:00,
2013-07-08 06:22:00,71.4,71.1,30.14,NW,321,0.0,0.0,99,0.00,,,0.26,meteohub,2013-07-08 10:22:00,
2013-07-08 06:27:00,71.4,71.1,30.15,NW,321,1.0,0.0,99,0.00,,,0.26,meteohub,2013-07-08 10:27:00,
2013-07-08 06:32:00,71.4,71.1,30.15,NW,321,0.0,2.0,99,0.00,,,0.26,meteohub,2013-07-08 10:32:00,
2013-07-08 06:37:00,71.4,71.1,30.15,NW,321,2.0,2.0,99,0.00,,,0.26,meteohub,2013-07-08 10:37:00,
2013-07-08 06:42:00,71.4,71.1,30.15,NW,321,1.0,3.0,99,0.00,,,0.26,meteohub,2013-07-08 10:42:00,
2013-07-08 06:47:00,71.4,71.1,30.15,NW,321,1.0,3.0,99,0.00,,,0.26,meteohub,2013-07-08 10:47:00,
2013-07-08 06:52:00,71.2,70.9,30.15,NW,321,0.0,3.0,99,0.00,,,0.26,meteohub,2013-07-08 10:52:00,
2013-07-08 06:57:00,71.2,70.9,30.14,NW,321,0.0,3.0,99,0.00,,,0.26,meteohub,2013-07-08 10:57:00,
2013-07-08 07:02:00,71.2,70.9,30.15,NW,321,1.0,2.0,99,0.01,,,0.27,meteohub,2013-07-08 11:02:00,
2013-07-08 07:07:00,71.1,70.7,30.15,West,261,1.0,3.0,99,0.01,,,0.27,meteohub,2013-07-08 11:07:00,
2013-07-08 07:12:00,70.9,70.3,30.16,WNW,296,2.0,4.0,98,0.01,,,0.27,meteohub,2013-07-08 11:12:00,
2013-07-08 07:17:00,70.5,69.6,30.16,NW,315,4.0,4.0,97,0.11,,,0.37,meteohub,2013-07-08 11:17:00,
2013-07-08 07:22:00,70.2,69.3,30.16,WNW,288,0.0,4.0,97,0.13,,,0.39,meteohub,2013-07-08 11:22:00,
2013-07-08 07:27:00,70.0,69.1,30.17,NW,320,1.0,4.0,97,0.17,,,0.43,meteohub,2013-07-08 11:27:00,
2013-07-08 07:32:00,69.6,68.7,30.15,NW,319,0.0,4.0,97,0.40,,,0.66,meteohub,2013-07-08 11:32:00,
2013-07-08 07:37:00,69.4,68.5,30.15,NW,319,0.0,3.0,97,0.56,,,0.82,meteohub,2013-07-08 11:37:00,
2013-07-08 07:42:00,69.4,68.5,30.16,NW,319,0.0,2.0,97,0.58,,,0.84,meteohub,2013-07-08 11:42:00,
2013-07-08 07:47:00,69.3,68.7,30.16,NW,319,0.0,1.0,98,0.58,,,0.84,meteohub,2013-07-08 11:47:00,
2013-07-08 07:52:00,69.1,68.5,30.15,NW,319,0.0,0.0,98,0.58,,,0.84,meteohub,2013-07-08 11:52:00,
2013-07-08 07:57:00,69.1,68.5,30.16,NW,319,0.0,0.0,98,0.58,,,0.84,meteohub,2013-07-08 11:57:00,
2013-07-08 08:02:00,69.1,68.5,30.16,NW,319,0.0,0.0,98,0.57,,,0.84,meteohub,2013-07-08 12:02:00,
2013-07-08 08:07:00,69.1,68.5,30.16,NW,319,0.0,0.0,98,0.57,,,0.84,meteohub,2013-07-08 12:07:00,
2013-07-08 08:12:00,69.1,68.5,30.16,NW,319,0.0,0.0,98,0.55,,,0.84,meteohub,2013-07-08 12:12:00,
2013-07-08 08:17:00,69.1,68.5,30.16,NW,319,0.0,0.0,98,0.46,,,0.84,meteohub,2013-07-08 12:17:00,
2013-07-08 08:22:00,69.1,68.5,30.16,NW,319,0.0,0.0,98,0.43,,,0.84,meteohub,2013-07-08 12:22:00,
2013-07-08 08:27:00,69.1,68.5,30.16,NW,319,0.0,0.0,98,0.36,,,0.84,meteohub,2013-07-08 12:27:00,
2013-07-08 08:32:00,69.3,68.7,30.16,NW,319,0.0,0.0,98,0.12,,,0.84,meteohub,2013-07-08 12:32:00,
2013-07-08 08:37:00,69.3,68.9,30.16,NW,319,0.0,0.0,99,0.01,,,0.84,meteohub,2013-07-08 12:37:00,
2013-07-08 08:42:00,69.4,69.1,30.16,NW,319,0.0,0.0,99,0.00,,,0.84,meteohub,2013-07-08 12:42:00,
2013-07-08 08:47:00,69.4,69.1,30.15,NW,319,0.0,0.0,99,0.00,,,0.84,meteohub,2013-07-08 12:47:00,
2013-07-08 08:52:00,69.6,69.3,30.15,NW,319,0.0,0.0,99,0.00,,,0.84,meteohub,2013-07-08 12:52:00,
2013-07-08 08:57:00,69.6,69.3,30.15,NW,319,0.0,0.0,99,0.00,,,0.84,meteohub,2013-07-08 12:57:00,
2013-07-08 09:02:00,70.0,69.6,30.15,NW,319,0.0,0.0,99,0.00,,,0.84,meteohub,2013-07-08 13:02:00,
2013-07-08 09:07:00,70.2,69.8,30.16,NW,319,0.0,0.0,99,0.00,,,0.84,meteohub,2013-07-08 13:07:00,
2013-07-08 09:12:00,70.3,70.0,30.16,NW,319,0.0,0.0,99,0.00,,,0.84,meteohub,2013-07-08 13:12:00,
2013-07-08 09:17:00,70.3,70.0,30.16,NW,319,0.0,0.0,99,0.00,,,0.84,meteohub,2013-07-08 13:17:00,
2013-07-08 09:22:00,70.5,70.2,30.17,NW,319,0.0,0.0,99,0.00,,,0.84,meteohub,2013-07-08 13:22:00,
2013-07-08 09:27:00,70.9,70.9,30.17,NW,319,0.0,0.0,100,0.00,,,0.84,meteohub,2013-07-08 13:27:00,
2013-07-08 09:32:00,70.9,70.5,30.17,WSW,238,0.0,0.0,99,0.00,,,0.84,meteohub,2013-07-08 13:32:00,
2013-07-08 09:37:00,71.1,70.7,30.17,WSW,238,0.0,0.0,99,0.00,,,0.84,meteohub,2013-07-08 13:37:00,
2013-07-08 09:42:00,71.2,71.2,30.17,WSW,238,0.0,0.0,100,0.00,,,0.84,meteohub,2013-07-08 13:42:00,
2013-07-08 09:47:00,71.8,71.8,30.17,WSW,251,0.0,1.0,100,0.00,,,0.84,meteohub,2013-07-08 13:47:00,
2013-07-08 09:52:00,72.0,71.6,30.17,WSW,251,0.0,1.0,99,0.00,,,0.84,meteohub,2013-07-08 13:52:00,
2013-07-08 09:57:00,72.1,71.8,30.17,WSW,251,0.0,1.0,99,0.00,,,0.84,meteohub,2013-07-08 13:57:00,
2013-07-08 10:02:00,72.7,72.3,30.17,WSW,251,0.0,1.0,99,0.00,,,0.84,meteohub,2013-07-08 14:02:00,
2013-07-08 10:07:00,72.9,72.5,30.17,WSW,239,0.0,1.0,99,0.00,,,0.84,meteohub,2013-07-08 14:07:00,
2013-07-08 10:12:00,73.0,72.5,30.17,WSW,239,0.0,1.0,98,0.00,,,0.84,meteohub,2013-07-08 14:12:00,
2013-07-08 10:17:00,73.4,72.5,30.17,West,273,0.0,1.0,97,0.00,,,0.84,meteohub,2013-07-08 14:17:00,
2013-07-08 10:22:00,73.8,72.9,30.17,West,273,0.0,1.0,97,0.00,,,0.84,meteohub,2013-07-08 14:22:00,
2013-07-08 10:28:00,74.1,73.2,30.17,NW,310,0.0,1.0,97,0.00,,,0.84,meteohub,2013-07-08 14:28:00,
2013-07-08 10:33:00,74.3,73.0,30.17,NW,307,0.0,2.0,96,0.00,,,0.84,meteohub,2013-07-08 14:33:00,
2013-07-08 10:38:00,74.5,73.0,30.17,NW,307,0.0,2.0,95,0.00,,,0.84,meteohub,2013-07-08 14:38:00,
2013-07-08 10:43:00,74.7,73.2,30.17,NW,307,0.0,2.0,95,0.00,,,0.84,meteohub,2013-07-08 14:43:00,
2013-07-08 10:48:00,75.0,73.2,30.17,NW,311,0.0,1.0,94,0.00,,,0.84,meteohub,2013-07-08 14:48:00,
2013-07-08 10:53:00,75.0,72.5,30.17,NW,311,1.0,2.0,92,0.00,,,0.84,meteohub,2013-07-08 14:53:00,
2013-07-08 10:58:00,75.2,73.4,30.17,NW,315,0.0,2.0,94,0.00,,,0.84,meteohub,2013-07-08 14:58:00,
2013-07-08 11:03:00,75.6,73.8,30.17,NW,315,0.0,2.0,94,0.00,,,0.84,meteohub,2013-07-08 15:03:00,
2013-07-08 11:08:00,75.7,73.6,30.17,NW,315,0.0,1.0,93,0.00,,,0.84,meteohub,2013-07-08 15:08:00,
2013-07-08 11:13:00,75.7,73.6,30.17,NW,315,0.0,1.0,93,0.00,,,0.84,meteohub,2013-07-08 15:13:00,
2013-07-08 11:19:00,75.9,73.4,30.17,NW,310,0.0,0.0,92,0.00,,,0.84,meteohub,2013-07-08 15:19:00,
2013-07-08 11:24:00,76.1,73.2,30.17,NW,311,0.0,2.0,91,0.00,,,0.84,meteohub,2013-07-08 15:24:00,
2013-07-08 11:29:00,76.1,72.9,30.17,WNW,287,0.0,2.0,90,0.00,,,0.84,meteohub,2013-07-08 15:29:00,
2013-07-08 11:34:00,76.6,73.4,30.17,WNW,287,0.0,2.0,90,0.00,,,0.84,meteohub,2013-07-08 15:34:00,
2013-07-08 11:39:00,77.2,73.8,30.17,WNW,292,0.0,2.0,89,0.00,,,0.84,meteohub,2013-07-08 15:39:00,
2013-07-08 11:44:00,77.4,73.9,30.17,NW,304,1.0,2.0,89,0.00,,,0.84,meteohub,2013-07-08 15:44:00,
2013-07-08 11:50:00,77.4,73.6,30.17,NW,304,0.0,2.0,88,0.00,,,0.84,meteohub,2013-07-08 15:50:00,
2013-07-08 11:55:00,77.5,74.1,30.17,WNW,296,0.0,3.0,89,0.00,,,0.84,meteohub,2013-07-08 15:55:00,
2013-07-08 12:00:00,77.7,73.9,30.17,WNW,287,0.0,3.0,88,0.00,,,0.84,meteohub,2013-07-08 16:00:00,
2013-07-08 12:05:00,78.1,73.9,30.17,NW,307,0.0,3.0,87,0.00,,,0.84,meteohub,2013-07-08 16:05:00,
2013-07-08 12:10:00,78.3,73.4,30.16,SW,236,0.0,5.0,85,0.00,,,0.84,meteohub,2013-07-08 16:10:00,
2013-07-08 12:15:00,78.4,73.9,30.16,West,277,0.0,5.0,86,0.00,,,0.84,meteohub,2013-07-08 16:15:00,
2013-07-08 12:20:00,78.8,74.3,30.16,West,277,0.0,5.0,86,0.00,,,0.84,meteohub,2013-07-08 16:20:00,
2013-07-08 12:25:00,79.0,73.4,30.16,WNW,296,0.0,4.0,83,0.00,,,0.84,meteohub,2013-07-08 16:25:00,
2013-07-08 12:30:00,79.2,73.9,30.16,WNW,291,0.0,4.0,84,0.00,,,0.84,meteohub,2013-07-08 16:30:00,
2013-07-08 12:35:00,79.5,73.6,30.16,WNW,290,0.0,4.0,82,0.00,,,0.84,meteohub,2013-07-08 16:35:00,
2013-07-08 12:40:00,79.9,73.6,30.16,SW,235,0.0,2.0,81,0.00,,,0.84,meteohub,2013-07-08 16:40:00,
2013-07-08 12:47:00,80.2,73.0,30.16,NW,317,0.0,2.0,79,0.00,,,0.84,meteohub,2013-07-08 16:47:00,
2013-07-08 12:52:00,80.6,73.4,30.16,WNW,289,1.0,2.0,79,0.00,,,0.84,meteohub,2013-07-08 16:52:00,
2013-07-08 12:57:00,81.3,73.4,30.16,West,277,0.0,4.0,77,0.00,,,0.84,meteohub,2013-07-08 16:57:00,
2013-07-08 13:02:00,80.8,73.2,30.16,WSW,255,0.0,4.0,78,0.00,,,0.84,meteohub,2013-07-08 17:02:00,
2013-07-08 13:07:00,80.8,73.6,30.16,WSW,250,0.0,2.0,79,0.00,,,0.84,meteohub,2013-07-08 17:07:00,
2013-07-08 13:13:00,81.1,74.3,30.16,West,262,1.0,2.0,80,0.00,,,0.84,meteohub,2013-07-08 17:13:00,
2013-07-08 13:18:00,81.7,71.8,30.16,West,267,0.0,2.0,72,0.00,,,0.84,meteohub,2013-07-08 17:18:00,
2013-07-08 13:24:00,81.1,72.5,30.16,West,267,0.0,2.0,75,0.00,,,0.84,meteohub,2013-07-08 17:24:00,
2013-07-08 13:32:00,81.1,72.9,30.16,West,269,0.0,2.0,76,0.00,,,0.84,meteohub,2013-07-08 17:32:00,
2013-07-08 13:37:00,81.0,72.3,30.15,West,269,0.0,2.0,75,0.00,,,0.84,meteohub,2013-07-08 17:37:00,
2013-07-08 13:42:00,82.2,73.0,30.15,West,280,0.0,2.0,74,0.00,,,0.84,meteohub,2013-07-08 17:42:00,
2013-07-08 13:47:00,82.2,72.7,30.15,West,271,0.0,2.0,73,0.00,,,0.84,meteohub,2013-07-08 17:47:00,
2013-07-08 13:52:00,81.3,72.7,30.15,West,271,0.0,2.0,75,0.00,,,0.84,meteohub,2013-07-08 17:52:00,
2013-07-08 13:57:00,81.7,74.5,30.15,SW,225,0.0,2.0,79,0.00,,,0.84,meteohub,2013-07-08 17:57:00,
2013-07-08 14:02:00,81.3,74.8,30.14,WSW,252,0.0,3.0,81,0.00,,,0.84,meteohub,2013-07-08 18:02:00,
2013-07-08 14:07:00,81.1,73.2,30.14,WSW,252,0.0,3.0,77,0.00,,,0.84,meteohub,2013-07-08 18:07:00,
2013-07-08 14:14:00,81.1,73.2,30.14,WSW,252,0.0,3.0,77,0.00,,,0.84,meteohub,2013-07-08 18:14:00,
2013-07-08 14:20:00,82.2,73.0,30.14,WNW,302,0.0,3.0,74,0.00,,,0.84,meteohub,2013-07-08 18:20:00,
2013-07-08 14:26:00,82.0,72.9,30.14,WNW,302,0.0,3.0,74,0.00,,,0.84,meteohub,2013-07-08 18:26:00,
2013-07-08 14:31:00,82.8,73.6,30.14,WSW,252,0.0,3.0,74,0.00,,,0.84,meteohub,2013-07-08 18:31:00,
2013-07-08 14:36:00,83.1,73.6,30.14,WSW,256,0.0,3.0,73,0.00,,,0.84,meteohub,2013-07-08 18:36:00,
2013-07-08 14:43:00,83.1,73.2,30.14,NW,309,0.0,3.0,72,0.00,,,0.84,meteohub,2013-07-08 18:43:00,
2013-07-08 14:52:00,82.8,74.5,30.13,NW,306,0.0,3.0,76,0.00,,,0.84,meteohub,2013-07-08 18:52:00,
2013-07-08 14:57:00,82.9,73.4,30.13,NW,317,3.0,3.0,73,0.00,,,0.84,meteohub,2013-07-08 18:57:00,
2013-07-08 15:02:00,83.3,72.9,30.13,NNW,337,0.0,4.0,71,0.00,,,0.84,meteohub,2013-07-08 19:02:00,
2013-07-08 15:07:00,83.3,74.1,30.13,NNW,337,0.0,4.0,74,0.00,,,0.84,meteohub,2013-07-08 19:07:00,
2013-07-08 15:12:00,83.3,74.1,30.13,NNW,338,0.0,3.0,74,0.00,,,0.84,meteohub,2013-07-08 19:12:00,
2013-07-08 15:17:00,83.8,72.5,30.13,West,269,2.0,2.0,69,0.00,,,0.84,meteohub,2013-07-08 19:17:00,
2013-07-08 15:22:00,83.8,73.4,30.12,West,271,0.0,3.0,71,0.00,,,0.84,meteohub,2013-07-08 19:22:00,
2013-07-08 15:27:00,83.7,73.2,30.12,SW,217,1.0,3.0,71,0.00,,,0.84,meteohub,2013-07-08 19:27:00,
2013-07-08 15:32:00,83.5,73.9,30.12,SSW,195,0.0,3.0,73,0.00,,,0.84,meteohub,2013-07-08 19:32:00,
2013-07-08 15:39:00,83.7,72.3,30.12,NNW,339,0.0,2.0,69,0.00,,,0.84,meteohub,2013-07-08 19:39:00,
2013-07-08 15:46:00,84.0,72.0,30.12,NW,321,0.0,2.0,67,0.00,,,0.84,meteohub,2013-07-08 19:46:00,
2013-07-08 15:51:00,84.4,72.1,30.12,NW,312,1.0,2.0,67,0.00,,,0.84,meteohub,2013-07-08 19:51:00,
2013-07-08 15:57:00,84.2,73.4,30.11,NW,304,0.0,2.0,70,0.00,,,0.84,meteohub,2013-07-08 19:57:00,
2013-07-08 16:06:00,83.7,71.6,30.10,NW,304,0.0,2.0,67,0.00,,,0.84,meteohub,2013-07-08 20:06:00,
2013-07-08 16:12:00,84.0,74.5,30.10,WNW,302,0.0,1.0,73,0.00,,,0.84,meteohub,2013-07-08 20:12:00,
2013-07-08 16:17:00,84.7,73.4,30.09,WNW,302,0.0,2.0,69,0.00,,,0.84,meteohub,2013-07-08 20:17:00,
2013-07-08 16:23:00,84.9,73.2,30.10,NNE,22,0.0,2.0,68,0.00,,,0.84,meteohub,2013-07-08 20:23:00,
2013-07-08 16:28:00,84.9,73.6,30.10,NNE,22,0.0,1.0,69,0.00,,,0.84,meteohub,2013-07-08 20:28:00,
2013-07-08 16:34:00,84.7,71.6,30.10,NNE,21,0.0,1.0,65,0.00,,,0.84,meteohub,2013-07-08 20:34:00,
2013-07-08 16:41:00,85.1,72.5,30.10,SSW,206,1.0,1.0,66,0.00,,,0.84,meteohub,2013-07-08 20:41:00,
2013-07-08 16:47:00,84.6,72.3,30.10,WNW,297,0.0,2.0,67,0.00,,,0.84,meteohub,2013-07-08 20:47:00,
2013-07-08 16:53:00,84.7,73.4,30.10,WNW,297,0.0,2.0,69,0.00,,,0.84,meteohub,2013-07-08 20:53:00,
2013-07-08 17:02:00,84.0,72.7,30.10,WNW,297,0.0,1.0,69,0.00,,,0.84,meteohub,2013-07-08 21:02:00,
2013-07-08 17:08:00,84.6,73.2,30.10,WNW,297,0.0,1.0,69,0.00,,,0.84,meteohub,2013-07-08 21:08:00,
2013-07-08 17:15:00,84.0,74.8,30.10,WNW,297,0.0,0.0,74,0.00,,,0.84,meteohub,2013-07-08 21:15:00,
2013-07-08 17:22:00,83.5,73.6,30.09,WNW,297,0.0,0.0,72,0.00,,,0.84,meteohub,2013-07-08 21:22:00,
2013-07-08 17:27:00,84.6,74.1,30.09,WNW,297,0.0,0.0,71,0.00,,,0.84,meteohub,2013-07-08 21:27:00,
2013-07-08 17:32:00,84.6,72.3,30.09,WNW,294,0.0,0.0,67,0.00,,,0.84,meteohub,2013-07-08 21:32:00,
2013-07-08 17:37:00,83.7,74.1,30.09,WNW,294,0.0,0.0,73,0.00,,,0.84,meteohub,2013-07-08 21:37:00,
2013-07-08 17:42:00,83.1,73.2,30.09,WNW,294,0.0,0.0,72,0.00,,,0.84,meteohub,2013-07-08 21:42:00,
2013-07-08 17:47:00,81.9,73.6,30.10,WNW,294,0.0,0.0,76,0.00,,,0.84,meteohub,2013-07-08 21:47:00,
2013-07-08 17:53:00,81.9,73.9,30.10,WNW,294,0.0,0.0,77,0.00,,,0.84,meteohub,2013-07-08 21:53:00,
2013-07-08 18:00:00,82.6,73.8,30.09,WNW,294,0.0,0.0,75,0.00,,,0.84,meteohub,2013-07-08 22:00:00,
2013-07-08 18:06:00,82.8,74.5,30.09,WNW,294,0.0,0.0,76,0.00,,,0.84,meteohub,2013-07-08 22:06:00,
2013-07-08 18:12:00,82.8,73.6,30.09,WNW,294,0.0,0.0,74,0.00,,,0.84,meteohub,2013-07-08 22:12:00,
2013-07-08 18:17:00,82.4,72.9,30.09,WNW,294,0.0,0.0,73,0.00,,,0.84,meteohub,2013-07-08 22:17:00,
2013-07-08 18:22:00,82.0,73.4,30.09,WNW,294,0.0,0.0,75,0.00,,,0.84,meteohub,2013-07-08 22:22:00,
2013-07-08 18:27:00,81.9,74.3,30.09,WNW,294,0.0,0.0,78,0.00,,,0.84,meteohub,2013-07-08 22:27:00,
2013-07-08 18:35:00,82.2,73.6,30.09,WNW,294,0.0,0.0,75,0.00,,,0.84,meteohub,2013-07-08 22:35:00,
2013-07-08 18:42:00,82.2,74.3,30.09,WNW,294,0.0,0.0,77,0.00,,,0.84,meteohub,2013-07-08 22:42:00,
2013-07-08 18:47:00,82.0,74.1,30.09,WNW,294,0.0,0.0,77,0.00,,,0.84,meteohub,2013-07-08 22:47:00,
2013-07-08 18:55:00,81.9,74.3,30.09,WNW,294,0.0,0.0,78,0.00,,,0.84,meteohub,2013-07-08 22:55:00,
2013-07-08 19:01:00,81.5,73.9,30.09,WNW,294,0.0,0.0,78,0.00,,,0.84,meteohub,2013-07-08 23:01:00,
2013-07-08 19:07:00,81.1,73.9,30.10,WNW,294,0.0,0.0,79,0.00,,,0.84,meteohub,2013-07-08 23:07:00,
2013-07-08 19:13:00,81.1,73.9,30.10,WNW,294,0.0,0.0,79,0.00,,,0.84,meteohub,2013-07-08 23:13:00,
2013-07-08 19:18:00,81.1,73.9,30.11,WNW,294,0.0,0.0,79,0.00,,,0.84,meteohub,2013-07-08 23:18:00,
2013-07-08 19:25:00,81.0,73.8,30.11,WNW,294,0.0,0.0,79,0.00,,,0.84,meteohub,2013-07-08 23:25:00,
2013-07-08 19:30:00,81.0,74.1,30.11,WNW,294,0.0,0.0,80,0.00,,,0.84,meteohub,2013-07-08 23:30:00,
2013-07-08 19:36:00,80.8,73.6,30.11,WNW,294,0.0,0.0,79,0.00,,,0.84,meteohub,2013-07-08 23:36:00,
2013-07-08 19:42:00,80.4,75.6,30.11,WNW,294,0.0,0.0,85,0.00,,,0.84,meteohub,2013-07-08 23:42:00,
2013-07-08 19:50:00,80.4,76.1,30.11,WNW,294,0.0,0.0,87,0.00,,,0.84,meteohub,2013-07-08 23:50:00,
2013-07-08 19:55:00,80.6,76.3,30.11,WNW,294,0.0,0.0,87,0.00,,,0.84,meteohub,2013-07-08 23:55:00,
2013-07-08 20:02:00,80.8,76.5,30.11,WNW,294,0.0,0.0,87,0.00,,,0.84,meteohub,2013-07-09 00:02:00,
2013-07-08 20:07:00,80.8,76.3,30.11,WNW,294,0.0,0.0,86,0.00,,,0.84,meteohub,2013-07-09 00:07:00,
2013-07-08 20:12:00,80.8,76.3,30.11,WNW,294,0.0,0.0,86,0.00,,,0.84,meteohub,2013-07-09 00:12:00,
2013-07-08 20:17:00,80.6,76.1,30.12,WNW,294,0.0,0.0,86,0.00,,,0.84,meteohub,2013-07-09 00:17:00,
2013-07-08 20:27:00,80.4,75.2,30.12,WNW,294,0.0,0.0,84,0.00,,,0.84,meteohub,2013-07-09 00:27:00,
2013-07-08 20:35:00,79.9,75.0,30.12,ESE,113,0.0,2.0,85,0.00,,,0.84,meteohub,2013-07-09 00:35:00,
2013-07-08 20:41:00,79.5,75.0,30.12,ESE,113,0.0,2.0,86,0.00,,,0.84,meteohub,2013-07-09 00:41:00,
2013-07-08 20:46:00,79.3,74.8,30.13,ESE,113,0.0,2.0,86,0.00,,,0.84,meteohub,2013-07-09 00:46:00,
2013-07-08 20:54:00,79.0,74.5,30.13,ESE,113,0.0,1.0,86,0.00,,,0.84,meteohub,2013-07-09 00:54:00,
2013-07-08 20:59:00,79.0,74.5,30.13,ESE,113,0.0,1.0,86,0.00,,,0.84,meteohub,2013-07-09 00:59:00,
2013-07-08 21:05:00,78.6,74.1,30.13,ESE,113,0.0,1.0,86,0.00,,,0.84,meteohub,2013-07-09 01:05:00,
2013-07-08 21:12:00,78.3,73.8,30.14,ESE,113,0.0,1.0,86,0.00,,,0.84,meteohub,2013-07-09 01:12:00,
2013-07-08 21:17:00,78.3,73.8,30.13,ESE,113,0.0,1.0,86,0.00,,,0.84,meteohub,2013-07-09 01:17:00,
2013-07-08 21:22:00,78.1,73.6,30.14,ESE,113,0.0,1.0,86,0.00,,,0.84,meteohub,2013-07-09 01:22:00,
2013-07-08 21:27:00,77.9,73.4,30.13,ESE,113,0.0,1.0,86,0.00,,,0.84,meteohub,2013-07-09 01:27:00,
2013-07-08 21:32:00,77.7,73.2,30.14,ESE,113,0.0,0.0,86,0.00,,,0.84,meteohub,2013-07-09 01:32:00,
2013-07-08 21:37:00,77.5,73.0,30.13,ESE,113,1.0,2.0,86,0.00,,,0.84,meteohub,2013-07-09 01:37:00,
2013-07-08 21:44:00,77.5,73.0,30.14,ESE,113,0.0,2.0,86,0.00,,,0.84,meteohub,2013-07-09 01:44:00,
2013-07-08 21:51:00,77.4,72.9,30.14,ESE,123,0.0,2.0,86,0.00,,,0.84,meteohub,2013-07-09 01:51:00,
2013-07-08 21:57:00,77.2,72.7,30.13,SE,128,0.0,2.0,86,0.00,,,0.84,meteohub,2013-07-09 01:57:00,
2013-07-08 22:02:00,76.8,72.3,30.13,SE,128,0.0,1.0,86,0.00,,,0.84,meteohub,2013-07-09 02:02:00,
2013-07-08 22:07:00,76.6,72.5,30.13,SE,128,0.0,1.0,87,0.00,,,0.84,meteohub,2013-07-09 02:07:00,
2013-07-08 22:13:00,76.6,72.5,30.13,SE,128,0.0,1.0,87,0.00,,,0.84,meteohub,2013-07-09 02:13:00,
2013-07-08 22:19:00,76.5,72.3,30.13,SE,128,0.0,1.0,87,0.00,,,0.84,meteohub,2013-07-09 02:19:00,
2013-07-08 22:25:00,76.5,72.7,30.13,SE,128,0.0,1.0,88,0.00,,,0.84,meteohub,2013-07-09 02:25:00,
2013-07-08 22:32:00,75.9,72.1,30.13,SE,128,0.0,0.0,88,0.00,,,0.84,meteohub,2013-07-09 02:32:00,
2013-07-08 22:39:00,75.9,72.1,30.13,SE,128,0.0,0.0,88,0.00,,,0.84,meteohub,2013-07-09 02:39:00,
2013-07-08 22:47:00,75.6,72.1,30.13,SE,128,0.0,0.0,89,0.00,,,0.84,meteohub,2013-07-09 02:47:00,
2013-07-08 22:54:00,75.4,72.3,30.13,SE,128,0.0,0.0,90,0.00,,,0.84,meteohub,2013-07-09 02:54:00,
2013-07-08 23:04:00,75.0,72.0,30.14,SE,128,0.0,0.0,90,0.00,,,0.84,meteohub,2013-07-09 03:04:00,
2013-07-08 23:10:00,74.8,72.0,30.14,ESE,122,0.0,0.0,91,0.00,,,0.84,meteohub,2013-07-09 03:10:00,
2013-07-08 23:15:00,74.7,71.8,30.14,ESE,122,0.0,0.0,91,0.00,,,0.84,meteohub,2013-07-09 03:15:00,
2013-07-08 23:21:00,74.7,71.8,30.14,ESE,122,0.0,0.0,91,0.00,,,0.84,meteohub,2013-07-09 03:21:00,
2013-07-08 23:22:00,74.5,72.0,30.14,ESE,122,0.0,0.0,92,0.00,,,0.84,meteohub,2013-07-09 03:22:00,
2013-07-08 23:27:00,74.3,71.8,30.14,ESE,122,0.0,0.0,92,0.00,,,0.84,meteohub,2013-07-09 03:27:00,
2013-07-08 23:32:00,74.1,71.6,30.14,ESE,122,0.0,0.0,92,0.00,,,0.84,meteohub,2013-07-09 03:32:00,
2013-07-08 23:38:00,74.1,71.6,30.14,ESE,122,0.0,0.0,92,0.00,,,0.84,meteohub,2013-07-09 03:38:00,
2013-07-08 23:46:00,73.9,71.4,30.14,ESE,122,0.0,0.0,92,0.00,,,0.84,meteohub,2013-07-09 03:46:00,
2013-07-08 23:51:00,73.8,71.2,30.14,ESE,122,0.0,0.0,92,0.00,,,0.84,meteohub,2013-07-09 03:51:00,
2013-07-08 23:57:00,73.6,71.4,30.14,SSE,154,0.0,0.0,93,0.00,,,0.84,meteohub,2013-07-09 03:57:00,